sensor_id;sensor_type;location;lat;lon;timestamp;temperature;humidity
51765;DHT22;37835;53.256;6.456;2023-07-30T00:01:19;16.10;99.90
51765;DHT22;37835;53.256;6.456;2023-07-30T00:03:45;16.10;99.90
51765;DHT22;37835;53.256;6.456;2023-07-30T00:06:10;16.00;99.90
51765;DHT22;37835;53.256;6.456;2023-07-30T00:08:36;16.00;99.90
51765;DHT22;37835;53.256;6.456;2023-07-30T00:11:02;16.00;99.90
51765;DHT22;37835;53.256;6.456;2023-07-30T00:13:27;16.00;99.90
51765;DHT22;37835;53.256;6.456;2023-07-30T00:15:53;16.00;99.90
51765;DHT22;37835;53.256;6.456;2023-07-30T00:18:18;16.00;99.90
51765;DHT22;37835;53.256;6.456;2023-07-30T00:20:44;16.00;99.90
51765;DHT22;37835;53.256;6.456;2023-07-30T00:23:09;16.00;99.90
51765;DHT22;37835;53.256;6.456;2023-07-30T00:25:35;16.00;99.90
51765;DHT22;37835;53.256;6.456;2023-07-30T00:28:01;16.00;99.90
51765;DHT22;37835;53.256;6.456;2023-07-30T00:30:27;16.00;99.90
51765;DHT22;37835;53.256;6.456;2023-07-30T00:32:52;16.00;99.90
51765;DHT22;37835;53.256;6.456;2023-07-30T00:35:18;16.00;99.90
51765;DHT22;37835;53.256;6.456;2023-07-30T00:37:43;16.00;99.90
51765;DHT22;37835;53.256;6.456;2023-07-30T00:40:09;15.90;99.90
51765;DHT22;37835;53.256;6.456;2023-07-30T00:42:35;15.90;99.90
51765;DHT22;37835;53.256;6.456;2023-07-30T00:45:00;15.90;99.90
51765;DHT22;37835;53.256;6.456;2023-07-30T00:47:26;15.90;99.90
51765;DHT22;37835;53.256;6.456;2023-07-30T00:49:52;15.90;99.90
51765;DHT22;37835;53.256;6.456;2023-07-30T00:52:20;15.90;99.90
51765;DHT22;37835;53.256;6.456;2023-07-30T00:54:48;15.80;99.90
51765;DHT22;37835;53.256;6.456;2023-07-30T00:57:15;15.80;99.90
51765;DHT22;37835;53.256;6.456;2023-07-30T00:59:41;15.80;99.90
51765;DHT22;37835;53.256;6.456;2023-07-30T01:02:07;15.80;99.90
51765;DHT22;37835;53.256;6.456;2023-07-30T01:04:32;15.80;99.90
51765;DHT22;37835;53.256;6.456;2023-07-30T01:06:58;15.80;99.90
51765;DHT22;37835;53.256;6.456;2023-07-30T01:09:24;15.80;99.90
51765;DHT22;37835;53.256;6.456;2023-07-30T01:11:52;15.80;99.90
51765;DHT22;37835;53.256;6.456;2023-07-30T01:14:20;15.80;99.90
51765;DHT22;37835;53.256;6.456;2023-07-30T01:16:45;15.80;99.90
51765;DHT22;37835;53.256;6.456;2023-07-30T01:19:11;15.80;99.90
51765;DHT22;37835;53.256;6.456;2023-07-30T01:21:37;15.80;99.90
51765;DHT22;37835;53.256;6.456;2023-07-30T01:24:03;15.80;99.90
51765;DHT22;37835;53.256;6.456;2023-07-30T01:26:44;15.80;99.90
51765;DHT22;37835;53.256;6.456;2023-07-30T01:29:14;15.80;99.90
51765;DHT22;37835;53.256;6.456;2023-07-30T01:31:42;15.80;99.90
51765;DHT22;37835;53.256;6.456;2023-07-30T01:34:10;15.80;99.90
51765;DHT22;37835;53.256;6.456;2023-07-30T01:36:38;15.80;99.90
51765;DHT22;37835;53.256;6.456;2023-07-30T01:39:04;15.90;99.90
51765;DHT22;37835;53.256;6.456;2023-07-30T01:41:30;15.90;99.90
51765;DHT22;37835;53.256;6.456;2023-07-30T01:43:56;15.90;99.90
51765;DHT22;37835;53.256;6.456;2023-07-30T01:46:21;15.90;99.90
51765;DHT22;37835;53.256;6.456;2023-07-30T01:48:47;15.90;99.90
51765;DHT22;37835;53.256;6.456;2023-07-30T01:51:12;16.30;99.90
51765;DHT22;37835;53.256;6.456;2023-07-30T01:53:38;15.90;99.90
51765;DHT22;37835;53.256;6.456;2023-07-30T01:56:03;15.90;99.90
51765;DHT22;37835;53.256;6.456;2023-07-30T01:58:29;15.90;99.90
51765;DHT22;37835;53.256;6.456;2023-07-30T02:00:55;15.90;99.90
51765;DHT22;37835;53.256;6.456;2023-07-30T02:03:20;15.90;99.90
51765;DHT22;37835;53.256;6.456;2023-07-30T02:05:46;15.90;99.90
51765;DHT22;37835;53.256;6.456;2023-07-30T02:08:11;15.90;99.90
51765;DHT22;37835;53.256;6.456;2023-07-30T02:10:41;16.00;99.90
51765;DHT22;37835;53.256;6.456;2023-07-30T02:13:07;16.00;99.90
51765;DHT22;37835;53.256;6.456;2023-07-30T02:15:32;16.00;99.90
51765;DHT22;37835;53.256;6.456;2023-07-30T02:17:58;16.00;99.90
51765;DHT22;37835;53.256;6.456;2023-07-30T02:20:23;16.10;99.90
51765;DHT22;37835;53.256;6.456;2023-07-30T02:22:49;16.00;99.90
51765;DHT22;37835;53.256;6.456;2023-07-30T02:25:15;16.10;99.90
51765;DHT22;37835;53.256;6.456;2023-07-30T02:27:40;16.10;99.90
51765;DHT22;37835;53.256;6.456;2023-07-30T02:30:06;16.10;99.90
51765;DHT22;37835;53.256;6.456;2023-07-30T02:32:32;16.10;99.90
51765;DHT22;37835;53.256;6.456;2023-07-30T02:34:57;16.10;99.90
51765;DHT22;37835;53.256;6.456;2023-07-30T02:37:23;16.10;99.90
51765;DHT22;37835;53.256;6.456;2023-07-30T02:39:48;16.10;99.90
51765;DHT22;37835;53.256;6.456;2023-07-30T02:42:14;16.20;99.90
51765;DHT22;37835;53.256;6.456;2023-07-30T02:44:39;16.20;99.90
51765;DHT22;37835;53.256;6.456;2023-07-30T02:47:05;16.10;99.90
51765;DHT22;37835;53.256;6.456;2023-07-30T02:49:31;16.10;99.90
51765;DHT22;37835;53.256;6.456;2023-07-30T02:51:56;16.10;99.90
51765;DHT22;37835;53.256;6.456;2023-07-30T02:54:22;16.10;99.90
51765;DHT22;37835;53.256;6.456;2023-07-30T02:56:47;16.00;99.90
51765;DHT22;37835;53.256;6.456;2023-07-30T02:59:13;16.00;99.90
51765;DHT22;37835;53.256;6.456;2023-07-30T03:01:39;16.00;99.90
51765;DHT22;37835;53.256;6.456;2023-07-30T03:04:05;16.00;99.90
51765;DHT22;37835;53.256;6.456;2023-07-30T03:06:31;16.00;99.90
51765;DHT22;37835;53.256;6.456;2023-07-30T03:08:56;15.90;99.90
51765;DHT22;37835;53.256;6.456;2023-07-30T03:11:22;15.90;99.90
51765;DHT22;37835;53.256;6.456;2023-07-30T03:13:48;15.90;99.90
51765;DHT22;37835;53.256;6.456;2023-07-30T03:16:14;15.90;99.90
51765;DHT22;37835;53.256;6.456;2023-07-30T03:18:39;15.90;99.90
51765;DHT22;37835;53.256;6.456;2023-07-30T03:21:05;15.90;99.90
51765;DHT22;37835;53.256;6.456;2023-07-30T03:23:30;15.90;99.90
51765;DHT22;37835;53.256;6.456;2023-07-30T03:25:57;15.80;99.90
51765;DHT22;37835;53.256;6.456;2023-07-30T03:28:23;15.80;99.90
51765;DHT22;37835;53.256;6.456;2023-07-30T03:30:48;15.80;99.90
51765;DHT22;37835;53.256;6.456;2023-07-30T03:33:14;15.80;99.90
51765;DHT22;37835;53.256;6.456;2023-07-30T03:35:39;15.80;99.90
51765;DHT22;37835;53.256;6.456;2023-07-30T03:38:05;15.80;99.90
51765;DHT22;37835;53.256;6.456;2023-07-30T03:40:31;15.80;99.90
51765;DHT22;37835;53.256;6.456;2023-07-30T03:42:57;15.80;99.90
51765;DHT22;37835;53.256;6.456;2023-07-30T03:45:22;15.80;99.90
51765;DHT22;37835;53.256;6.456;2023-07-30T03:47:48;15.80;99.90
51765;DHT22;37835;53.256;6.456;2023-07-30T03:50:13;15.70;99.90
51765;DHT22;37835;53.256;6.456;2023-07-30T03:52:39;15.70;99.90
51765;DHT22;37835;53.256;6.456;2023-07-30T03:55:05;15.70;99.90
51765;DHT22;37835;53.256;6.456;2023-07-30T03:57:30;15.70;99.90
51765;DHT22;37835;53.256;6.456;2023-07-30T03:59:56;15.60;99.90
51765;DHT22;37835;53.256;6.456;2023-07-30T04:02:21;15.70;99.90
51765;DHT22;37835;53.256;6.456;2023-07-30T04:04:47;15.60;99.90
51765;DHT22;37835;53.256;6.456;2023-07-30T04:07:15;15.60;99.90
51765;DHT22;37835;53.256;6.456;2023-07-30T04:09:41;15.50;99.90
51765;DHT22;37835;53.256;6.456;2023-07-30T04:12:07;15.50;99.90
51765;DHT22;37835;53.256;6.456;2023-07-30T04:14:32;15.50;99.90
51765;DHT22;37835;53.256;6.456;2023-07-30T04:16:58;15.50;99.90
51765;DHT22;37835;53.256;6.456;2023-07-30T04:19:24;15.50;99.90
51765;DHT22;37835;53.256;6.456;2023-07-30T04:21:49;15.50;99.90
51765;DHT22;37835;53.256;6.456;2023-07-30T04:24:15;15.50;99.90
51765;DHT22;37835;53.256;6.456;2023-07-30T04:26:40;15.50;99.90
51765;DHT22;37835;53.256;6.456;2023-07-30T04:29:06;15.50;99.90
51765;DHT22;37835;53.256;6.456;2023-07-30T04:31:31;15.60;99.90
51765;DHT22;37835;53.256;6.456;2023-07-30T04:33:58;15.60;99.90
51765;DHT22;37835;53.256;6.456;2023-07-30T04:36:24;15.60;99.90
51765;DHT22;37835;53.256;6.456;2023-07-30T04:38:49;15.60;99.90
51765;DHT22;37835;53.256;6.456;2023-07-30T04:41:15;15.60;99.90
51765;DHT22;37835;53.256;6.456;2023-07-30T04:43:40;15.70;99.90
51765;DHT22;37835;53.256;6.456;2023-07-30T04:46:06;15.70;99.90
51765;DHT22;37835;53.256;6.456;2023-07-30T04:48:31;15.70;99.90
51765;DHT22;37835;53.256;6.456;2023-07-30T04:50:57;15.80;99.90
51765;DHT22;37835;53.256;6.456;2023-07-30T04:53:22;15.80;99.90
51765;DHT22;37835;53.256;6.456;2023-07-30T04:55:48;15.90;99.90
51765;DHT22;37835;53.256;6.456;2023-07-30T04:58:14;15.90;99.90
51765;DHT22;37835;53.256;6.456;2023-07-30T05:00:39;16.00;99.90
51765;DHT22;37835;53.256;6.456;2023-07-30T05:03:05;16.00;99.90
51765;DHT22;37835;53.256;6.456;2023-07-30T05:05:30;16.00;99.90
51765;DHT22;37835;53.256;6.456;2023-07-30T05:07:56;16.00;99.90
51765;DHT22;37835;53.256;6.456;2023-07-30T05:10:21;16.00;99.90
51765;DHT22;37835;53.256;6.456;2023-07-30T05:12:47;16.00;99.90
51765;DHT22;37835;53.256;6.456;2023-07-30T05:15:13;16.10;99.90
51765;DHT22;37835;53.256;6.456;2023-07-30T05:17:38;16.10;99.90
51765;DHT22;37835;53.256;6.456;2023-07-30T05:20:04;16.10;99.90
51765;DHT22;37835;53.256;6.456;2023-07-30T05:22:30;16.10;99.90
51765;DHT22;37835;53.256;6.456;2023-07-30T05:24:56;16.10;99.90
51765;DHT22;37835;53.256;6.456;2023-07-30T05:27:22;16.10;99.90
51765;DHT22;37835;53.256;6.456;2023-07-30T05:29:47;16.10;99.90
51765;DHT22;37835;53.256;6.456;2023-07-30T05:32:13;16.10;99.90
51765;DHT22;37835;53.256;6.456;2023-07-30T05:34:39;16.20;99.90
51765;DHT22;37835;53.256;6.456;2023-07-30T05:37:04;16.20;99.90
51765;DHT22;37835;53.256;6.456;2023-07-30T05:39:30;16.20;99.90
51765;DHT22;37835;53.256;6.456;2023-07-30T05:41:56;16.30;99.90
51765;DHT22;37835;53.256;6.456;2023-07-30T05:44:21;16.30;99.90
51765;DHT22;37835;53.256;6.456;2023-07-30T05:46:47;16.40;99.90
51765;DHT22;37835;53.256;6.456;2023-07-30T05:49:13;16.50;99.90
51765;DHT22;37835;53.256;6.456;2023-07-30T05:51:40;16.50;99.90
51765;DHT22;37835;53.256;6.456;2023-07-30T05:54:05;16.50;99.90
51765;DHT22;37835;53.256;6.456;2023-07-30T05:56:31;16.50;99.90
51765;DHT22;37835;53.256;6.456;2023-07-30T05:58:56;16.50;99.90
51765;DHT22;37835;53.256;6.456;2023-07-30T06:01:22;16.60;99.90
51765;DHT22;37835;53.256;6.456;2023-07-30T06:03:48;16.60;99.90
51765;DHT22;37835;53.256;6.456;2023-07-30T06:06:14;16.60;99.90
51765;DHT22;37835;53.256;6.456;2023-07-30T06:08:40;16.70;99.90
51765;DHT22;37835;53.256;6.456;2023-07-30T06:11:05;16.70;99.90
51765;DHT22;37835;53.256;6.456;2023-07-30T06:13:31;16.70;99.90
51765;DHT22;37835;53.256;6.456;2023-07-30T06:15:56;16.80;99.90
51765;DHT22;37835;53.256;6.456;2023-07-30T06:18:22;16.80;99.90
51765;DHT22;37835;53.256;6.456;2023-07-30T06:20:48;16.80;99.90
51765;DHT22;37835;53.256;6.456;2023-07-30T06:23:13;16.80;99.90
51765;DHT22;37835;53.256;6.456;2023-07-30T06:25:39;16.90;99.90
51765;DHT22;37835;53.256;6.456;2023-07-30T06:28:05;16.90;99.90
51765;DHT22;37835;53.256;6.456;2023-07-30T06:30:32;17.00;99.90
51765;DHT22;37835;53.256;6.456;2023-07-30T06:32:58;17.00;99.90
51765;DHT22;37835;53.256;6.456;2023-07-30T06:35:23;17.00;99.90
51765;DHT22;37835;53.256;6.456;2023-07-30T06:37:50;17.00;99.90
51765;DHT22;37835;53.256;6.456;2023-07-30T06:40:16;17.10;99.90
51765;DHT22;37835;53.256;6.456;2023-07-30T06:42:41;17.10;99.90
51765;DHT22;37835;53.256;6.456;2023-07-30T06:45:07;17.10;99.90
51765;DHT22;37835;53.256;6.456;2023-07-30T06:47:33;17.20;99.90
51765;DHT22;37835;53.256;6.456;2023-07-30T06:49:59;17.90;99.90
51765;DHT22;37835;53.256;6.456;2023-07-30T06:52:24;17.20;99.90
51765;DHT22;37835;53.256;6.456;2023-07-30T06:54:50;17.20;99.90
51765;DHT22;37835;53.256;6.456;2023-07-30T06:57:15;17.20;99.90
51765;DHT22;37835;53.256;6.456;2023-07-30T06:59:41;17.20;99.90
51765;DHT22;37835;53.256;6.456;2023-07-30T07:02:08;17.10;99.90
51765;DHT22;37835;53.256;6.456;2023-07-30T07:04:33;17.10;99.90
51765;DHT22;37835;53.256;6.456;2023-07-30T07:06:59;17.20;99.90
51765;DHT22;37835;53.256;6.456;2023-07-30T07:09:25;17.20;99.90
51765;DHT22;37835;53.256;6.456;2023-07-30T07:11:51;17.20;99.90
51765;DHT22;37835;53.256;6.456;2023-07-30T07:14:17;17.30;99.90
51765;DHT22;37835;53.256;6.456;2023-07-30T07:16:42;17.40;99.90
51765;DHT22;37835;53.256;6.456;2023-07-30T07:19:08;17.40;99.90
51765;DHT22;37835;53.256;6.456;2023-07-30T07:21:34;17.60;99.90
51765;DHT22;37835;53.256;6.456;2023-07-30T07:23:59;17.60;99.90
51765;DHT22;37835;53.256;6.456;2023-07-30T07:26:25;17.70;99.90
51765;DHT22;37835;53.256;6.456;2023-07-30T07:28:50;18.00;99.90
51765;DHT22;37835;53.256;6.456;2023-07-30T07:31:16;17.90;99.90
51765;DHT22;37835;53.256;6.456;2023-07-30T07:33:44;18.00;99.90
51765;DHT22;37835;53.256;6.456;2023-07-30T07:36:10;18.10;99.90
51765;DHT22;37835;53.256;6.456;2023-07-30T07:38:35;18.20;99.90
51765;DHT22;37835;53.256;6.456;2023-07-30T07:41:01;18.30;99.90
51765;DHT22;37835;53.256;6.456;2023-07-30T07:43:27;18.30;99.90
51765;DHT22;37835;53.256;6.456;2023-07-30T07:45:53;18.30;99.90
51765;DHT22;37835;53.256;6.456;2023-07-30T07:48:19;18.30;99.90
51765;DHT22;37835;53.256;6.456;2023-07-30T07:50:45;18.30;99.90
51765;DHT22;37835;53.256;6.456;2023-07-30T07:53:11;18.30;99.90
51765;DHT22;37835;53.256;6.456;2023-07-30T07:55:36;18.20;99.90
51765;DHT22;37835;53.256;6.456;2023-07-30T07:58:02;18.20;99.90
51765;DHT22;37835;53.256;6.456;2023-07-30T08:00:28;18.20;99.90
51765;DHT22;37835;53.256;6.456;2023-07-30T08:02:53;18.20;99.90
51765;DHT22;37835;53.256;6.456;2023-07-30T08:05:19;18.20;99.90
51765;DHT22;37835;53.256;6.456;2023-07-30T08:07:47;18.20;99.90
51765;DHT22;37835;53.256;6.456;2023-07-30T08:10:13;18.20;99.90
51765;DHT22;37835;53.256;6.456;2023-07-30T08:12:38;18.20;99.90
51765;DHT22;37835;53.256;6.456;2023-07-30T08:15:04;18.10;99.90
51765;DHT22;37835;53.256;6.456;2023-07-30T08:17:30;18.10;99.90
51765;DHT22;37835;53.256;6.456;2023-07-30T08:19:55;18.10;99.90
51765;DHT22;37835;53.256;6.456;2023-07-30T08:22:21;18.20;99.90
51765;DHT22;37835;53.256;6.456;2023-07-30T08:24:47;18.20;99.90
51765;DHT22;37835;53.256;6.456;2023-07-30T08:27:12;18.20;99.90
51765;DHT22;37835;53.256;6.456;2023-07-30T08:29:38;18.20;99.90
51765;DHT22;37835;53.256;6.456;2023-07-30T08:32:04;18.30;99.90
51765;DHT22;37835;53.256;6.456;2023-07-30T08:34:29;18.30;99.90
51765;DHT22;37835;53.256;6.456;2023-07-30T08:36:55;18.40;99.90
51765;DHT22;37835;53.256;6.456;2023-07-30T08:39:21;18.40;99.90
51765;DHT22;37835;53.256;6.456;2023-07-30T08:41:46;18.40;99.90
51765;DHT22;37835;53.256;6.456;2023-07-30T08:44:12;18.40;99.90
51765;DHT22;37835;53.256;6.456;2023-07-30T08:46:38;18.40;99.90
51765;DHT22;37835;53.256;6.456;2023-07-30T08:49:04;18.40;99.90
51765;DHT22;37835;53.256;6.456;2023-07-30T08:51:31;18.50;99.90
51765;DHT22;37835;53.256;6.456;2023-07-30T08:53:58;18.50;99.90
51765;DHT22;37835;53.256;6.456;2023-07-30T08:56:25;18.50;99.90
51765;DHT22;37835;53.256;6.456;2023-07-30T08:58:53;18.50;99.90
51765;DHT22;37835;53.256;6.456;2023-07-30T09:01:22;18.60;99.90
51765;DHT22;37835;53.256;6.456;2023-07-30T09:03:52;18.70;99.90
51765;DHT22;37835;53.256;6.456;2023-07-30T09:06:18;18.70;99.90
51765;DHT22;37835;53.256;6.456;2023-07-30T09:08:44;18.70;99.90
51765;DHT22;37835;53.256;6.456;2023-07-30T09:11:10;18.70;99.90
51765;DHT22;37835;53.256;6.456;2023-07-30T09:13:40;18.70;99.90
51765;DHT22;37835;53.256;6.456;2023-07-30T09:16:11;18.70;99.90
51765;DHT22;37835;53.256;6.456;2023-07-30T09:18:45;18.60;99.90
51765;DHT22;37835;53.256;6.456;2023-07-30T09:21:14;18.50;99.90
51765;DHT22;37835;53.256;6.456;2023-07-30T09:23:41;18.50;99.90
51765;DHT22;37835;53.256;6.456;2023-07-30T09:26:07;18.40;99.90
51765;DHT22;37835;53.256;6.456;2023-07-30T09:28:33;18.30;99.90
51765;DHT22;37835;53.256;6.456;2023-07-30T09:31:03;18.20;99.90
51765;DHT22;37835;53.256;6.456;2023-07-30T09:33:29;18.20;99.90
51765;DHT22;37835;53.256;6.456;2023-07-30T09:35:54;18.10;99.90
51765;DHT22;37835;53.256;6.456;2023-07-30T09:38:21;18.00;99.90
51765;DHT22;37835;53.256;6.456;2023-07-30T09:40:47;18.00;99.90
51765;DHT22;37835;53.256;6.456;2023-07-30T09:43:15;18.00;99.90
51765;DHT22;37835;53.256;6.456;2023-07-30T09:45:43;18.00;99.90
51765;DHT22;37835;53.256;6.456;2023-07-30T09:48:09;18.00;99.90
51765;DHT22;37835;53.256;6.456;2023-07-30T09:50:36;18.00;99.90
51765;DHT22;37835;53.256;6.456;2023-07-30T09:53:03;18.00;99.90
51765;DHT22;37835;53.256;6.456;2023-07-30T09:55:29;18.00;99.90
51765;DHT22;37835;53.256;6.456;2023-07-30T09:57:55;18.00;99.90
51765;DHT22;37835;53.256;6.456;2023-07-30T10:00:20;18.00;99.90
51765;DHT22;37835;53.256;6.456;2023-07-30T10:02:47;18.10;99.90
51765;DHT22;37835;53.256;6.456;2023-07-30T10:05:19;18.20;99.90
51765;DHT22;37835;53.256;6.456;2023-07-30T10:07:53;18.20;99.90
51765;DHT22;37835;53.256;6.456;2023-07-30T10:10:22;18.30;99.90
51765;DHT22;37835;53.256;6.456;2023-07-30T10:12:50;18.40;99.90
51765;DHT22;37835;53.256;6.456;2023-07-30T10:15:20;18.50;99.90
51765;DHT22;37835;53.256;6.456;2023-07-30T10:17:52;18.50;99.90
51765;DHT22;37835;53.256;6.456;2023-07-30T10:20:27;18.70;99.90
51765;DHT22;37835;53.256;6.456;2023-07-30T10:22:56;18.70;99.90
51765;DHT22;37835;53.256;6.456;2023-07-30T10:25:30;18.90;99.90
51765;DHT22;37835;53.256;6.456;2023-07-30T10:28:07;19.00;99.90
51765;DHT22;37835;53.256;6.456;2023-07-30T10:30:33;19.00;99.90
51765;DHT22;37835;53.256;6.456;2023-07-30T10:33:03;18.90;99.90
51765;DHT22;37835;53.256;6.456;2023-07-30T10:38:14;18.80;99.90
51765;DHT22;37835;53.256;6.456;2023-07-30T10:40:40;18.80;99.90
51765;DHT22;37835;53.256;6.456;2023-07-30T10:43:18;18.80;99.90
51765;DHT22;37835;53.256;6.456;2023-07-30T10:45:51;18.90;99.90
51765;DHT22;37835;53.256;6.456;2023-07-30T10:48:17;18.90;99.90
51765;DHT22;37835;53.256;6.456;2023-07-30T10:50:43;18.90;99.90
51765;DHT22;37835;53.256;6.456;2023-07-30T10:53:14;19.00;99.90
51765;DHT22;37835;53.256;6.456;2023-07-30T10:55:41;19.10;99.90
51765;DHT22;37835;53.256;6.456;2023-07-30T10:58:06;19.20;99.90
51765;DHT22;37835;53.256;6.456;2023-07-30T11:00:32;19.30;99.90
51765;DHT22;37835;53.256;6.456;2023-07-30T11:02:57;19.40;99.90
51765;DHT22;37835;53.256;6.456;2023-07-30T11:05:23;19.40;99.90
51765;DHT22;37835;53.256;6.456;2023-07-30T11:07:52;19.50;99.90
51765;DHT22;37835;53.256;6.456;2023-07-30T11:10:17;19.60;99.90
51765;DHT22;37835;53.256;6.456;2023-07-30T11:12:43;19.70;99.90
51765;DHT22;37835;53.256;6.456;2023-07-30T11:15:09;19.90;99.90
51765;DHT22;37835;53.256;6.456;2023-07-30T11:17:35;20.00;99.90
51765;DHT22;37835;53.256;6.456;2023-07-30T11:20:01;20.10;99.90
51765;DHT22;37835;53.256;6.456;2023-07-30T11:22:31;20.20;99.90
51765;DHT22;37835;53.256;6.456;2023-07-30T11:24:58;20.30;99.90
51765;DHT22;37835;53.256;6.456;2023-07-30T11:27:23;20.40;99.90
51765;DHT22;37835;53.256;6.456;2023-07-30T11:29:56;20.50;99.90
51765;DHT22;37835;53.256;6.456;2023-07-30T11:32:22;20.60;99.90
51765;DHT22;37835;53.256;6.456;2023-07-30T11:34:54;20.60;99.90
51765;DHT22;37835;53.256;6.456;2023-07-30T11:37:20;20.60;99.90
51765;DHT22;37835;53.256;6.456;2023-07-30T11:39:47;20.60;99.90
51765;DHT22;37835;53.256;6.456;2023-07-30T11:42:13;20.60;99.90
51765;DHT22;37835;53.256;6.456;2023-07-30T11:44:39;20.60;99.90
51765;DHT22;37835;53.256;6.456;2023-07-30T11:47:06;21.00;99.90
51765;DHT22;37835;53.256;6.456;2023-07-30T11:49:31;20.70;99.90
51765;DHT22;37835;53.256;6.456;2023-07-30T11:52:10;20.80;99.90
51765;DHT22;37835;53.256;6.456;2023-07-30T11:54:36;20.80;99.90
51765;DHT22;37835;53.256;6.456;2023-07-30T11:57:02;20.90;99.90
51765;DHT22;37835;53.256;6.456;2023-07-30T11:59:27;20.90;99.90
51765;DHT22;37835;53.256;6.456;2023-07-30T12:01:53;20.70;99.90
51765;DHT22;37835;53.256;6.456;2023-07-30T12:04:19;20.70;99.90
51765;DHT22;37835;53.256;6.456;2023-07-30T12:06:47;20.50;99.90
51765;DHT22;37835;53.256;6.456;2023-07-30T12:09:17;20.40;99.90
51765;DHT22;37835;53.256;6.456;2023-07-30T12:12:00;20.30;99.90
51765;DHT22;37835;53.256;6.456;2023-07-30T12:17:07;20.30;99.90
51765;DHT22;37835;53.256;6.456;2023-07-30T12:19:33;20.30;99.90
51765;DHT22;37835;53.256;6.456;2023-07-30T12:21:58;20.40;99.90
51765;DHT22;37835;53.256;6.456;2023-07-30T12:24:24;20.50;99.90
51765;DHT22;37835;53.256;6.456;2023-07-30T12:26:49;20.40;99.90
51765;DHT22;37835;53.256;6.456;2023-07-30T12:29:15;20.50;99.90
51765;DHT22;37835;53.256;6.456;2023-07-30T12:31:40;20.60;99.90
51765;DHT22;37835;53.256;6.456;2023-07-30T12:34:06;20.60;99.90
51765;DHT22;37835;53.256;6.456;2023-07-30T12:36:32;20.50;99.90
51765;DHT22;37835;53.256;6.456;2023-07-30T12:38:57;20.50;99.90
51765;DHT22;37835;53.256;6.456;2023-07-30T12:41:23;20.60;99.90
51765;DHT22;37835;53.256;6.456;2023-07-30T12:43:52;20.80;99.90
51765;DHT22;37835;53.256;6.456;2023-07-30T12:46:19;21.80;99.90
51765;DHT22;37835;53.256;6.456;2023-07-30T12:48:44;21.10;99.90
51765;DHT22;37835;53.256;6.456;2023-07-30T12:51:10;21.20;99.90
51765;DHT22;37835;53.256;6.456;2023-07-30T12:53:35;21.20;99.90
51765;DHT22;37835;53.256;6.456;2023-07-30T12:56:01;21.40;99.90
51765;DHT22;37835;53.256;6.456;2023-07-30T12:58:26;21.40;99.90
51765;DHT22;37835;53.256;6.456;2023-07-30T13:00:52;21.30;99.90
51765;DHT22;37835;53.256;6.456;2023-07-30T13:03:18;21.20;99.90
51765;DHT22;37835;53.256;6.456;2023-07-30T13:05:43;21.10;99.90
51765;DHT22;37835;53.256;6.456;2023-07-30T13:08:09;21.10;99.90
51765;DHT22;37835;53.256;6.456;2023-07-30T13:10:34;21.10;99.90
51765;DHT22;37835;53.256;6.456;2023-07-30T13:13:01;21.20;99.90
51765;DHT22;37835;53.256;6.456;2023-07-30T13:15:26;21.30;99.90
51765;DHT22;37835;53.256;6.456;2023-07-30T13:17:53;21.20;99.90
51765;DHT22;37835;53.256;6.456;2023-07-30T13:20:19;21.30;99.90
51765;DHT22;37835;53.256;6.456;2023-07-30T13:22:44;21.30;99.90
51765;DHT22;37835;53.256;6.456;2023-07-30T13:25:10;21.40;99.90
51765;DHT22;37835;53.256;6.456;2023-07-30T13:27:36;21.40;99.90
51765;DHT22;37835;53.256;6.456;2023-07-30T13:30:01;21.40;99.90
51765;DHT22;37835;53.256;6.456;2023-07-30T13:32:27;21.40;99.90
51765;DHT22;37835;53.256;6.456;2023-07-30T13:34:52;21.40;99.90
51765;DHT22;37835;53.256;6.456;2023-07-30T13:37:18;21.50;99.90
51765;DHT22;37835;53.256;6.456;2023-07-30T13:39:44;21.50;99.90
51765;DHT22;37835;53.256;6.456;2023-07-30T13:42:09;21.60;99.90
51765;DHT22;37835;53.256;6.456;2023-07-30T13:44:35;21.60;99.90
51765;DHT22;37835;53.256;6.456;2023-07-30T13:47:00;21.70;99.90
51765;DHT22;37835;53.256;6.456;2023-07-30T13:49:26;21.60;99.90
51765;DHT22;37835;53.256;6.456;2023-07-30T13:51:51;21.60;99.90
51765;DHT22;37835;53.256;6.456;2023-07-30T13:54:17;21.50;99.90
51765;DHT22;37835;53.256;6.456;2023-07-30T13:56:43;21.30;99.90
51765;DHT22;37835;53.256;6.456;2023-07-30T13:59:08;21.30;99.90
51765;DHT22;37835;53.256;6.456;2023-07-30T14:01:34;21.30;99.90
51765;DHT22;37835;53.256;6.456;2023-07-30T14:03:59;21.30;99.90
51765;DHT22;37835;53.256;6.456;2023-07-30T14:06:25;21.30;99.90
51765;DHT22;37835;53.256;6.456;2023-07-30T14:08:51;21.20;99.90
51765;DHT22;37835;53.256;6.456;2023-07-30T14:11:16;21.20;99.90
51765;DHT22;37835;53.256;6.456;2023-07-30T14:13:42;21.20;99.90
51765;DHT22;37835;53.256;6.456;2023-07-30T14:16:07;21.20;99.90
51765;DHT22;37835;53.256;6.456;2023-07-30T14:18:33;21.20;99.90
51765;DHT22;37835;53.256;6.456;2023-07-30T14:20:59;21.10;99.90
51765;DHT22;37835;53.256;6.456;2023-07-30T14:23:25;21.10;99.90
51765;DHT22;37835;53.256;6.456;2023-07-30T14:25:50;21.10;99.90
51765;DHT22;37835;53.256;6.456;2023-07-30T14:28:16;21.10;99.90
51765;DHT22;37835;53.256;6.456;2023-07-30T14:30:42;21.10;99.90
51765;DHT22;37835;53.256;6.456;2023-07-30T14:33:10;21.00;99.90
51765;DHT22;37835;53.256;6.456;2023-07-30T14:35:36;20.90;99.90
51765;DHT22;37835;53.256;6.456;2023-07-30T14:38:04;20.90;99.90
51765;DHT22;37835;53.256;6.456;2023-07-30T14:40:30;21.00;99.90
51765;DHT22;37835;53.256;6.456;2023-07-30T14:42:55;21.20;99.90
51765;DHT22;37835;53.256;6.456;2023-07-30T14:45:21;21.30;99.90
51765;DHT22;37835;53.256;6.456;2023-07-30T14:47:47;21.30;99.90
51765;DHT22;37835;53.256;6.456;2023-07-30T14:50:12;21.30;99.90
51765;DHT22;37835;53.256;6.456;2023-07-30T14:52:38;21.20;99.90
51765;DHT22;37835;53.256;6.456;2023-07-30T14:55:04;21.10;99.90
51765;DHT22;37835;53.256;6.456;2023-07-30T14:57:30;21.00;99.90
51765;DHT22;37835;53.256;6.456;2023-07-30T14:59:56;20.90;99.90
51765;DHT22;37835;53.256;6.456;2023-07-30T15:02:21;20.90;99.90
51765;DHT22;37835;53.256;6.456;2023-07-30T15:04:47;20.70;99.90
51765;DHT22;37835;53.256;6.456;2023-07-30T15:07:13;20.50;99.90
51765;DHT22;37835;53.256;6.456;2023-07-30T15:09:38;20.30;99.90
51765;DHT22;37835;53.256;6.456;2023-07-30T15:12:05;19.90;99.90
51765;DHT22;37835;53.256;6.456;2023-07-30T15:14:32;19.60;99.90
51765;DHT22;37835;53.256;6.456;2023-07-30T15:16:57;19.40;99.90
51765;DHT22;37835;53.256;6.456;2023-07-30T15:19:24;19.00;99.90
51765;DHT22;37835;53.256;6.456;2023-07-30T15:21:49;18.90;99.90
51765;DHT22;37835;53.256;6.456;2023-07-30T15:24:15;18.90;99.90
51765;DHT22;37835;53.256;6.456;2023-07-30T15:26:41;18.90;99.90
51765;DHT22;37835;53.256;6.456;2023-07-30T15:29:06;19.20;99.90